Denver, Colorado
Traffic Map
Current Weather Conditions
Denver, Colorado
Broken Clouds
Broken Clouds
72°
Feels Like: 72°
Wind Chill: 72° Ceiling: 7500
Heat Index: 72° Visibility: 10mi
Dew Point: 46° Wind: 13mph
Humidity: 40% Direction: 30° (NNE)
Pressure: 30.17in Gusts: 0mph
Raw Report DataKDEN 210053Z 03011KT 10SM BKN075 22/08 A3017 RMK AO2 SLP154 T02220078
Traffic Incident Summary
Active as of:
Severity:
Category:
InformationThere was an issue retrieving the traffic information for this location. Please try a different location or try again shortly.
Advertisements